Time;durP1;ratioP1;P1;durP2;ratioP2;P2;SDS_P1;SDS_P2;PMS_P1;PMS_P2;Temp;Humidity;BMP_temperature;BMP_pressure;BME280_temperature;BME280_humidity;BME280_pressure;Samples;Min_cycle;Max_cycle;Signal;HPM_P1;HPM_P2
2023/01/22 00:00:19;;;;;;;3.72;1.77;;;;;;;;;;4368782;32;68812;-64
2023/01/22 00:03:05;;;;;;;;;;;;;;;;;;4346822;32;67151;-63
2023/01/22 00:05:51;;;;;;;2.65;1.70;;;;;;;;;;4357262;32;67722;-62
2023/01/22 00:08:38;;;;;;;3.35;2.12;;;;;;;;;;4368951;32;71778;-63
2023/01/22 00:11:24;;;;;;;3.05;1.50;;;;;;;;;;4369096;32;65216;-63
2023/01/22 00:14:11;;;;;;;;;;;;;;;;;;4369238;32;67462;-63
2023/01/22 00:16:58;;;;;;;3.97;1.80;;;;;;;;;;4367809;32;59404;-63
2023/01/22 00:19:45;;;;;;;5.55;1.92;;;;;;;;;;4368585;32;69455;-63
2023/01/22 00:22:31;;;;;;;3.25;1.60;;;;;;;;;;4367921;32;68012;-63
2023/01/22 00:25:18;;;;;;;1.90;1.50;;;;;;;;;;4367582;32;67831;-62
2023/01/22 00:28:05;;;;;;;2.53;1.80;;;;;;;;;;4368873;32;60003;-64
2023/01/22 00:31:00;;;;;;;2.37;1.65;;;;;;;;;;4366718;32;70345;-63
2023/01/22 00:33:47;;;;;;;3.83;1.80;;;;;;;;;;4366878;32;69966;-62
2023/01/22 00:36:34;;;;;;;4.93;1.60;;;;;;;;;;4356861;32;66582;-62
2023/01/22 00:39:20;;;;;;;2.37;1.45;;;;;;;;;;4366723;32;71639;-62
2023/01/22 00:42:07;;;;;;;3.22;1.50;;;;;;;;;;4378091;32;65692;-64
2023/01/22 00:44:54;;;;;;;2.85;1.65;;;;;;;;;;4367379;32;66657;-63
2023/01/22 00:47:41;;;;;;;4.53;1.70;;;;;;;;;;4356517;32;61161;-62
2023/01/22 00:50:27;;;;;;;;;;;;;;;;;;4377900;32;70551;-63
2023/01/22 00:53:14;;;;;;;3.17;1.92;;;;;;;;;;4367403;32;65047;-62
2023/01/22 00:56:01;;;;;;;2.28;1.48;;;;;;;;;;4356167;32;67180;-63
2023/01/22 00:58:48;;;;;;;3.35;1.58;;;;;;;;;;4372612;32;58747;-62
2023/01/22 01:01:35;;;;;;;2.85;1.70;;;;;;;;;;4381617;32;71090;-64
2023/01/22 01:04:22;;;;;;;3.20;1.80;;;;;;;;;;4382155;32;68330;-63
2023/01/22 01:07:09;;;;;;;2.40;1.60;;;;;;;;;;4381523;32;68094;-62
2023/01/22 01:09:56;;;;;;;3.60;1.55;;;;;;;;;;4382011;32;71692;-63
2023/01/22 01:12:42;;;;;;;2.05;1.30;;;;;;;;;;4392825;32;66119;-63
2023/01/22 01:15:29;;;;;;;3.70;1.62;;;;;;;;;;4382062;32;67028;-64
2023/01/22 01:18:15;;;;;;;3.30;1.80;;;;;;;;;;4382232;32;66758;-64
2023/01/22 01:21:03;;;;;;;3.62;1.70;;;;;;;;;;4381196;32;72325;-63
2023/01/22 01:23:50;;;;;;;4.05;2.03;;;;;;;;;;4370806;32;66256;-64
2023/01/22 01:26:39;;;;;;;2.85;1.65;;;;;;;;;;4381980;32;66595;-63
2023/01/22 01:29:26;;;;;;;2.20;1.45;;;;;;;;;;4392850;32;60016;-64
2023/01/22 01:32:12;;;;;;;;;;;;;;;;;;4382243;32;70466;-63
2023/01/22 01:34:58;;;;;;;2.62;1.58;;;;;;;;;;4381872;32;69434;-63
2023/01/22 01:37:45;;;;;;;2.22;1.50;;;;;;;;;;4381297;32;68126;-63
2023/01/22 01:43:16;;;;;;;4.25;1.70;;;;;;;;;;3849698;37;43868;-62
2023/01/22 01:46:05;;;;;;;2.42;1.62;;;;;;;;;;4411413;32;59239;-63
2023/01/22 01:48:54;;;;;;;4.87;1.60;;;;;;;;;;4398970;32;70572;-62
2023/01/22 01:51:41;;;;;;;3.42;1.77;;;;;;;;;;4411020;32;68270;-63
2023/01/22 01:54:28;;;;;;;4.50;1.65;;;;;;;;;;4398955;32;68004;-63
2023/01/22 01:57:22;;;;;;;2.22;1.77;;;;;;;;;;4377092;32;71332;-62
2023/01/22 02:00:09;;;;;;;3.87;1.75;;;;;;;;;;4398878;32;65829;-64
2023/01/22 02:03:00;;;;;;;3.25;1.90;;;;;;;;;;4409688;32;67151;-62
2023/01/22 02:05:47;;;;;;;2.92;2.03;;;;;;;;;;4399015;32;59164;-64
2023/01/22 02:08:34;;;;;;;3.60;1.73;;;;;;;;;;4408884;32;71764;-63
2023/01/22 02:11:22;;;;;;;3.00;1.65;;;;;;;;;;4409678;32;65061;-62
2023/01/22 02:14:18;;;;;;;4.53;1.90;;;;;;;;;;4387540;32;67237;-63
2023/01/22 02:17:14;;;;;;;3.08;1.70;;;;;;;;;;4409619;32;59178;-63
2023/01/22 02:20:00;;;;;;;6.12;1.80;;;;;;;;;;4409349;32;70524;-63
2023/01/22 02:22:48;;;;;;;2.92;1.65;;;;;;;;;;4410541;32;69586;-62
2023/01/22 02:25:35;;;;;;;3.78;2.30;;;;;;;;;;4397856;32;68335;-63
2023/01/22 02:28:22;;;;;;;3.42;1.83;;;;;;;;;;4387729;32;70679;-63
2023/01/22 02:31:08;;;;;;;;;;;;;;;;;;4398771;32;66804;-63
2023/01/22 02:33:55;;;;;;;2.95;1.62;;;;;;;;;;4410850;32;68298;-63
2023/01/22 02:36:44;;;;;;;3.45;1.87;;;;;;;;;;4398845;32;66809;-63
2023/01/22 02:39:31;;;;;;;3.58;1.90;;;;;;;;;;4409059;32;71740;-62
2023/01/22 02:42:18;;;;;;;4.12;1.90;;;;;;;;;;4410040;32;65916;-64
2023/01/22 02:45:05;;;;;;;3.08;1.65;;;;;;;;;;4410508;32;67453;-64
2023/01/22 02:47:51;;;;;;;;;;;;;;;;;;4409299;32;61500;-64
2023/01/22 02:50:38;;;;;;;3.05;1.98;;;;;;;;;;4408964;32;70137;-62
2023/01/22 02:53:25;;;;;;;5.05;1.85;;;;;;;;;;4405026;32;69471;-64
2023/01/22 02:56:12;;;;;;;5.87;1.80;;;;;;;;;;4388070;32;67575;-63
2023/01/22 02:59:00;;;;;;;2.50;1.70;;;;;;;;;;4399189;32;60156;-62
2023/01/22 03:01:47;;;;;;;3.78;1.90;;;;;;;;;;4398459;32;70563;-62
2023/01/22 03:04:35;;;;;;;4.40;2.10;;;;;;;;;;4387188;32;68931;-62
2023/01/22 03:07:22;;;;;;;2.80;1.77;;;;;;;;;;4399943;32;66385;-62
2023/01/22 03:10:14;;;;;;;2.12;1.55;;;;;;;;;;4387139;32;71524;-62
2023/01/22 03:22:17;;;;;;;4.12;1.80;;;;;;;;;;4399483;32;70431;-63
2023/01/22 03:25:04;;;;;;;;;;;;;;;;;;4398945;32;65725;-64
2023/01/22 03:28:15;;;;;;;3.12;1.85;;;;;;;;;;4387037;32;67452;-62
2023/01/22 03:31:02;;;;;;;2.12;1.60;;;;;;;;;;4398694;32;59218;-62
2023/01/22 03:33:49;;;;;;;2.37;1.58;;;;;;;;;;4398253;32;70400;-64
2023/01/22 03:36:36;;;;;;;;;;;;;;;;;;4387480;32;69773;-63
2023/01/22 03:39:23;;;;;;;3.28;2.10;;;;;;;;;;4376284;32;68291;-63
2023/01/22 03:42:10;;;;;;;3.22;1.80;;;;;;;;;;4398953;32;71796;-63
2023/01/22 03:44:57;;;;;;;2.87;2.00;;;;;;;;;;4397633;32;65751;-63
2023/01/22 03:47:44;;;;;;;4.12;1.92;;;;;;;;;;4398462;32;67694;-63
2023/01/22 03:50:35;;;;;;;3.28;2.03;;;;;;;;;;4366716;32;68004;-62
2023/01/22 03:53:21;;;;;;;3.75;2.12;;;;;;;;;;4401430;32;70894;-62
2023/01/22 03:56:14;;;;;;;4.93;2.00;;;;;;;;;;4399419;32;65961;-64
2023/01/22 03:59:01;;;;;;;3.20;1.77;;;;;;;;;;4376770;32;67661;-63
2023/01/22 04:01:49;;;;;;;3.55;2.00;;;;;;;;;;4387551;32;60176;-63
2023/01/22 04:04:37;;;;;;;6.47;2.20;;;;;;;;;;4386622;32;69525;-63
2023/01/22 04:07:24;;;;;;;2.72;1.60;;;;;;;;;;4397861;32;69461;-62
2023/01/22 04:10:11;;;;;;;3.87;2.10;;;;;;;;;;4387258;32;66845;-62
2023/01/22 04:12:58;;;;;;;2.95;2.10;;;;;;;;;;4397652;32;60870;-63
2023/01/22 04:15:45;;;;;;;3.10;2.00;;;;;;;;;;4375290;32;71187;-62
2023/01/22 04:18:33;;;;;;;3.58;2.33;;;;;;;;;;4398981;32;68475;-63
2023/01/22 04:21:20;;;;;;;2.90;2.00;;;;;;;;;;4397842;32;66901;-64
2023/01/22 04:24:08;;;;;;;3.22;2.00;;;;;;;;;;4397050;32;72645;-63
2023/01/22 04:26:55;;;;;;;4.20;2.10;;;;;;;;;;4397835;32;65848;-62
2023/01/22 04:29:41;;;;;;;3.87;1.90;;;;;;;;;;4387618;32;66319;-64
2023/01/22 04:32:29;;;;;;;2.72;1.87;;;;;;;;;;4397711;32;60060;-62
2023/01/22 04:35:16;;;;;;;3.22;2.00;;;;;;;;;;4396956;32;71430;-62
2023/01/22 04:38:05;;;;;;;3.20;2.40;;;;;;;;;;4375640;32;66601;-64
2023/01/22 04:40:51;;;;;;;5.35;2.33;;;;;;;;;;4386406;32;66646;-63
2023/01/22 04:43:38;;;;;;;;;;;;;;;;;;4399263;32;59188;-63
2023/01/22 04:46:24;;;;;;;4.55;2.17;;;;;;;;;;4397643;32;70280;-62
2023/01/22 04:49:11;;;;;;;4.28;1.80;;;;;;;;;;4397101;32;68041;-63
2023/01/22 04:51:58;;;;;;;3.45;1.92;;;;;;;;;;4385849;32;68270;-62
2023/01/22 04:54:46;;;;;;;2.67;1.80;;;;;;;;;;4386237;32;72294;-63
2023/01/22 04:57:32;;;;;;;5.37;2.20;;;;;;;;;;4386239;32;66799;-63
2023/01/22 05:00:19;;;;;;;2.92;2.10;;;;;;;;;;4397807;32;67449;-62
2023/01/22 05:03:06;;;;;;;;;;;;;;;;;;4398888;32;67515;-63
2023/01/22 05:05:53;;;;;;;3.42;2.12;;;;;;;;;;4375396;32;72218;-62
2023/01/22 05:08:40;;;;;;;3.55;2.20;;;;;;;;;;4386116;32;66653;-63
2023/01/22 05:11:28;;;;;;;3.58;2.00;;;;;;;;;;4398829;32;67498;-63
2023/01/22 05:14:14;;;;;;;3.75;2.17;;;;;;;;;;4397623;32;60973;-64
2023/01/22 05:17:03;;;;;;;3.22;2.22;;;;;;;;;;4397311;32;70145;-64
2023/01/22 05:19:49;;;;;;;3.65;2.40;;;;;;;;;;4397794;32;69511;-62
2023/01/22 05:22:36;;;;;;;4.30;2.30;;;;;;;;;;4386009;32;68387;-63
2023/01/22 05:25:23;;;;;;;3.75;2.20;;;;;;;;;;4397437;32;71724;-63
2023/01/22 05:28:11;;;;;;;3.78;2.53;;;;;;;;;;4396726;32;71579;-62
2023/01/22 05:30:58;;;;;;;3.30;2.08;;;;;;;;;;4385577;32;69414;-63
2023/01/22 05:33:45;;;;;;;3.12;1.85;;;;;;;;;;4386338;32;67571;-63
2023/01/22 05:36:32;;;;;;;4.47;2.60;;;;;;;;;;4396814;32;70912;-63
2023/01/22 05:39:19;;;;;;;3.37;2.33;;;;;;;;;;4386262;32;64994;-63
2023/01/22 05:42:05;;;;;;;5.85;2.33;;;;;;;;;;4396627;32;67805;-62
2023/01/22 05:44:52;;;;;;;3.33;2.20;;;;;;;;;;4398696;32;60216;-63
2023/01/22 05:47:39;;;;;;;3.55;2.20;;;;;;;;;;4396599;32;69714;-63
2023/01/22 05:50:27;;;;;;;5.53;2.30;;;;;;;;;;4396820;32;69391;-64
2023/01/22 05:53:20;;;;;;;5.68;2.33;;;;;;;;;;4386371;32;68200;-63
2023/01/22 05:56:07;;;;;;;4.47;2.55;;;;;;;;;;4398272;32;60207;-63
2023/01/22 05:58:54;;;;;;;3.35;2.40;;;;;;;;;;4396639;32;69603;-63
2023/01/22 06:01:42;;;;;;;3.78;2.15;;;;;;;;;;4396926;32;69425;-63
2023/01/22 06:04:28;;;;;;;3.97;2.00;;;;;;;;;;4398213;32;67490;-63
2023/01/22 06:07:15;;;;;;;4.22;2.33;;;;;;;;;;4375254;32;71650;-63
2023/01/22 06:10:02;;;;;;;7.57;2.50;;;;;;;;;;4396755;32;66204;-63
2023/01/22 06:12:49;;;;;;;3.90;2.42;;;;;;;;;;4385484;32;68506;-61
2023/01/22 06:15:37;;;;;;;4.57;2.42;;;;;;;;;;4385396;32;59853;-64
2023/01/22 06:18:26;;;;;;;3.12;2.15;;;;;;;;;;4396778;32;71416;-64
2023/01/22 06:21:12;;;;;;;4.32;2.28;;;;;;;;;;4386056;32;63252;-64
2023/01/22 06:23:59;;;;;;;4.12;2.42;;;;;;;;;;4385345;32;67552;-64
2023/01/22 06:26:47;;;;;;;5.15;2.35;;;;;;;;;;4396643;32;60175;-64
2023/01/22 06:29:33;;;;;;;4.12;2.45;;;;;;;;;;4399606;32;70499;-63
2023/01/22 06:32:20;;;;;;;3.87;2.50;;;;;;;;;;4377613;32;69232;-62
2023/01/22 06:35:07;;;;;;;5.12;2.55;;;;;;;;;;4388854;32;68350;-62
2023/01/22 06:37:54;;;;;;;4.55;2.50;;;;;;;;;;4388614;32;71846;-64
2023/01/22 06:40:42;;;;;;;4.93;2.47;;;;;;;;;;4399985;32;69714;-63
2023/01/22 06:43:29;;;;;;;;;;;;;;;;;;4400709;32;69506;-63
2023/01/22 06:46:16;;;;;;;4.85;2.45;;;;;;;;;;4388292;32;67688;-63
2023/01/22 06:49:08;;;;;;;4.07;2.50;;;;;;;;;;4398594;32;71677;-63
2023/01/22 06:51:55;;;;;;;5.90;2.50;;;;;;;;;;4376832;32;66615;-62
2023/01/22 06:54:42;;;;;;;3.22;2.20;;;;;;;;;;4377797;32;67792;-63
2023/01/22 06:57:29;;;;;;;2.78;2.05;;;;;;;;;;4387841;32;60757;-63
2023/01/22 07:00:17;;;;;;;6.32;2.28;;;;;;;;;;4387722;32;70647;-62
2023/01/22 07:03:07;;;;;;;3.70;2.10;;;;;;;;;;4377240;32;68902;-62
2023/01/22 07:05:58;;;;;;;4.45;1.92;;;;;;;;;;4398772;32;66968;-63
2023/01/22 07:08:45;;;;;;;6.00;2.37;;;;;;;;;;4398672;32;60025;-63
2023/01/22 07:11:32;;;;;;;4.72;2.03;;;;;;;;;;4387608;32;70507;-63
2023/01/22 07:14:19;;;;;;;5.32;2.40;;;;;;;;;;4399778;32;69748;-64
2023/01/22 07:17:05;;;;;;;;;;;;;;;;;;4387877;32;67302;-63
2023/01/22 07:19:52;;;;;;;3.83;2.20;;;;;;;;;;4398396;32;71805;-63
2023/01/22 07:22:38;;;;;;;3.15;2.10;;;;;;;;;;4386840;32;65716;-64
2023/01/22 07:25:26;;;;;;;3.95;2.25;;;;;;;;;;4399750;32;67146;-63
2023/01/22 07:28:14;;;;;;;4.65;2.60;;;;;;;;;;4377393;32;59265;-63
2023/01/22 07:31:02;;;;;;;4.18;2.50;;;;;;;;;;4387350;32;71519;-63
2023/01/22 07:33:48;;;;;;;4.07;2.08;;;;;;;;;;4376346;32;64696;-63
2023/01/22 07:36:35;;;;;;;4.62;2.15;;;;;;;;;;4398553;32;67504;-63
2023/01/22 07:39:22;;;;;;;6.87;2.50;;;;;;;;;;4388128;32;61141;-64
2023/01/22 07:42:08;;;;;;;5.65;2.17;;;;;;;;;;4386967;32;70512;-64
2023/01/22 07:44:55;;;;;;;6.07;2.45;;;;;;;;;;4398209;32;68250;-63
2023/01/22 07:47:41;;;;;;;4.90;2.80;;;;;;;;;;4398178;32;66756;-63
2023/01/22 07:50:30;;;;;;;6.95;3.33;;;;;;;;;;4386363;32;72562;-64
2023/01/22 07:53:16;;;;;;;7.40;3.58;;;;;;;;;;4387503;32;66454;-63
2023/01/22 07:56:04;;;;;;;5.70;2.90;;;;;;;;;;4387478;32;69125;-63
2023/01/22 07:58:50;;;;;;;5.85;3.22;;;;;;;;;;4398086;32;67753;-64
2023/01/22 08:01:37;;;;;;;7.22;3.65;;;;;;;;;;4386563;32;69085;-63
2023/01/22 08:04:24;;;;;;;3.60;2.30;;;;;;;;;;4386837;32;66769;-64
2023/01/22 08:07:16;;;;;;;5.80;3.10;;;;;;;;;;4387185;32;67869;-63
2023/01/22 08:10:04;;;;;;;4.00;2.20;;;;;;;;;;4388285;32;60138;-63
2023/01/22 08:12:50;;;;;;;4.82;2.50;;;;;;;;;;4398195;32;70350;-63
2023/01/22 08:15:37;;;;;;;2.55;2.00;;;;;;;;;;4387377;32;68437;-62
2023/01/22 08:18:23;;;;;;;3.90;2.35;;;;;;;;;;4386995;32;67642;-64
2023/01/22 08:21:10;;;;;;;2.70;2.08;;;;;;;;;;4376305;32;61028;-64
2023/01/22 08:23:57;;;;;;;3.22;2.05;;;;;;;;;;4399243;32;70469;-63
2023/01/22 08:26:44;;;;;;;4.97;2.70;;;;;;;;;;4386534;32;68905;-63
2023/01/22 08:29:30;;;;;;;4.28;2.62;;;;;;;;;;4386578;32;67240;-64
2023/01/22 08:32:18;;;;;;;3.87;2.50;;;;;;;;;;4397923;32;71944;-63
2023/01/22 08:35:05;;;;;;;5.28;2.50;;;;;;;;;;4387033;32;65972;-62
2023/01/22 08:37:52;;;;;;;5.68;2.50;;;;;;;;;;4399200;32;67168;-63
2023/01/22 08:40:38;;;;;;;3.45;2.03;;;;;;;;;;4386794;32;59667;-62
2023/01/22 08:43:25;;;;;;;5.72;2.60;;;;;;;;;;4397270;32;71817;-63
2023/01/22 08:46:12;;;;;;;6.10;2.40;;;;;;;;;;4397694;32;65208;-62
2023/01/22 08:48:58;;;;;;;3.97;2.40;;;;;;;;;;4375414;32;68350;-62
2023/01/22 08:51:45;;;;;;;5.18;2.60;;;;;;;;;;4397111;32;59743;-62
2023/01/22 08:54:32;;;;;;;4.78;2.28;;;;;;;;;;4397454;32;70934;-64
2023/01/22 08:57:18;;;;;;;;;;;;;;;;;;4397114;32;69707;-65
2023/01/22 09:00:06;;;;;;;3.50;2.42;;;;;;;;;;4386750;32;67507;-62
2023/01/22 09:02:57;;;;;;;6.60;2.72;;;;;;;;;;4397055;32;71716;-62
2023/01/22 09:05:44;;;;;;;5.55;2.30;;;;;;;;;;4398696;32;65737;-65
2023/01/22 09:08:31;;;;;;;3.97;2.30;;;;;;;;;;4397241;32;69267;-63
2023/01/22 09:11:18;;;;;;;4.53;2.60;;;;;;;;;;4397190;32;66590;-64
2023/01/22 09:14:07;;;;;;;5.50;2.37;;;;;;;;;;4397081;32;70747;-62
2023/01/22 09:16:53;;;;;;;5.32;2.45;;;;;;;;;;4387138;32;66212;-64
2023/01/22 09:19:40;;;;;;;4.28;2.30;;;;;;;;;;4386641;32;67008;-63
2023/01/22 09:22:27;;;;;;;4.30;2.87;;;;;;;;;;4386919;32;60437;-62
2023/01/22 09:25:14;;;;;;;3.30;2.28;;;;;;;;;;4398504;32;69657;-63
2023/01/22 09:28:06;;;;;;;4.10;2.40;;;;;;;;;;4397318;32;68348;-62
2023/01/22 09:30:52;;;;;;;3.47;2.70;;;;;;;;;;4386779;32;68164;-63
2023/01/22 09:33:39;;;;;;;3.92;2.37;;;;;;;;;;4401711;32;60338;-63
2023/01/22 09:36:25;;;;;;;4.55;2.40;;;;;;;;;;4390016;32;69470;-62
2023/01/22 09:39:12;;;;;;;;;;;;;;;;;;4382887;32;69315;-63
2023/01/22 09:42:01;;;;;;;3.35;2.28;;;;;;;;;;4401774;32;66927;-62
2023/01/22 09:44:51;;;;;;;4.45;2.42;;;;;;;;;;4396770;32;70664;-64
2023/01/22 09:47:46;;;;;;;4.78;2.22;;;;;;;;;;4386846;32;65874;-63
2023/01/22 09:50:34;;;;;;;4.47;2.50;;;;;;;;;;4397171;32;67304;-64
2023/01/22 09:53:21;;;;;;;3.30;2.12;;;;;;;;;;4397062;32;60540;-63
2023/01/22 09:56:17;;;;;;;3.42;2.45;;;;;;;;;;4385977;32;69565;-63
2023/01/22 09:59:05;;;;;;;4.20;2.65;;;;;;;;;;4385391;32;65842;-63
2023/01/22 10:01:55;;;;;;;8.38;3.00;;;;;;;;;;4397111;32;66893;-64
2023/01/22 10:04:45;;;;;;;6.03;2.80;;;;;;;;;;4388419;32;58857;-63
2023/01/22 10:07:35;;;;;;;4.97;2.60;;;;;;;;;;4399351;32;70612;-63
2023/01/22 10:10:24;;;;;;;6.10;2.60;;;;;;;;;;4388718;32;69425;-63
2023/01/22 10:13:21;;;;;;;3.50;2.50;;;;;;;;;;4377693;32;67974;-63
2023/01/22 10:16:09;;;;;;;5.37;2.83;;;;;;;;;;4398917;32;70823;-63
2023/01/22 10:19:32;;;;;;;6.05;3.40;;;;;;;;;;4388767;32;65895;-64
2023/01/22 10:22:24;;;;;;;4.85;2.80;;;;;;;;;;4374313;32;67725;-63
2023/01/22 10:25:15;;;;;;;4.07;2.70;;;;;;;;;;4399058;32;67497;-63
2023/01/22 10:28:03;;;;;;;6.07;3.10;;;;;;;;;;4400255;32;71722;-62
2023/01/22 10:30:56;;;;;;;6.03;2.80;;;;;;;;;;4388513;32;65996;-62
2023/01/22 10:33:44;;;;;;;4.00;2.50;;;;;;;;;;4387698;32;68649;-64
2023/01/22 10:36:31;;;;;;;6.05;3.00;;;;;;;;;;4400636;32;60132;-63
2023/01/22 10:39:18;;;;;;;4.70;3.35;;;;;;;;;;4388485;32;70767;-64
2023/01/22 10:42:05;;;;;;;4.97;2.80;;;;;;;;;;4398082;32;70179;-63
2023/01/22 10:44:56;;;;;;;4.10;2.70;;;;;;;;;;4376608;32;68356;-63
2023/01/22 10:47:43;;;;;;;6.40;2.95;;;;;;;;;;4399333;32;71927;-62
2023/01/22 10:50:30;;;;;;;;;;;;;;;;;;4388299;32;70146;-62
2023/01/22 10:53:32;;;;;;;5.18;2.80;;;;;;;;;;4388292;32;69200;-63
2023/01/22 10:56:34;;;;;;;3.75;2.80;;;;;;;;;;4387526;32;68306;-64
2023/01/22 10:59:24;;;;;;;5.55;3.08;;;;;;;;;;4387814;32;71635;-63
2023/01/22 11:02:18;;;;;;;4.85;3.10;;;;;;;;;;4376997;32;65465;-62
2023/01/22 11:05:24;;;;;;;6.90;3.20;;;;;;;;;;4398851;32;66951;-63
2023/01/22 11:08:14;;;;;;;5.50;3.08;;;;;;;;;;4398808;32;58878;-62
2023/01/22 11:11:07;;;;;;;4.22;2.83;;;;;;;;;;4387934;32;69288;-64
2023/01/22 11:13:55;;;;;;;5.12;2.90;;;;;;;;;;4398293;32;68044;-62
2023/01/22 11:16:42;;;;;;;5.55;3.22;;;;;;;;;;4398819;32;67496;-64
2023/01/22 11:19:38;;;;;;;7.50;3.45;;;;;;;;;;4399235;32;60457;-63
2023/01/22 11:22:33;;;;;;;5.32;3.17;;;;;;;;;;4398394;32;70898;-63
2023/01/22 11:25:20;;;;;;;5.97;3.50;;;;;;;;;;4387674;32;69329;-63
2023/01/22 11:28:40;;;;;;;4.82;3.20;;;;;;;;;;4398580;32;67796;-64
2023/01/22 11:31:45;;;;;;;5.97;3.50;;;;;;;;;;4387510;32;71381;-63
2023/01/22 11:34:56;;;;;;;5.47;3.40;;;;;;;;;;4399536;32;65036;-65
2023/01/22 11:38:04;;;;;;;6.25;3.30;;;;;;;;;;4399662;32;67781;-62
2023/01/22 11:40:56;;;;;;;5.93;3.85;;;;;;;;;;4399355;32;67618;-64
2023/01/22 11:43:54;;;;;;;6.18;3.62;;;;;;;;;;4397902;32;70830;-63
2023/01/22 11:46:52;;;;;;;5.43;3.17;;;;;;;;;;4398622;32;66183;-62
2023/01/22 11:49:59;;;;;;;7.05;3.95;;;;;;;;;;4398167;32;67892;-64
2023/01/22 11:53:01;;;;;;;5.12;3.42;;;;;;;;;;4398800;32;60395;-62
2023/01/22 11:55:56;;;;;;;5.97;3.33;;;;;;;;;;4397971;32;69690;-63
2023/01/22 11:58:51;;;;;;;5.68;3.60;;;;;;;;;;4397459;32;68999;-62
2023/01/22 12:02:07;;;;;;;5.62;3.60;;;;;;;;;;4398042;32;67562;-63
2023/01/22 12:05:12;;;;;;;6.55;3.78;;;;;;;;;;4383601;32;71629;-63
2023/01/22 12:08:29;;;;;;;6.93;3.67;;;;;;;;;;4387043;32;70547;-62
2023/01/22 12:11:16;;;;;;;6.90;4.03;;;;;;;;;;4387200;32;69220;-64
2023/01/22 12:14:32;;;;;;;6.68;4.03;;;;;;;;;;4397345;32;68087;-64
2023/01/22 12:17:39;;;;;;;6.47;3.65;;;;;;;;;;4381066;32;71829;-64
2023/01/22 12:20:45;;;;;;;6.85;3.65;;;;;;;;;;4399000;32;65893;-63
2023/01/22 12:23:40;;;;;;;4.82;3.00;;;;;;;;;;4387198;32;67138;-63
2023/01/22 12:26:31;;;;;;;4.28;2.80;;;;;;;;;;4397625;32;60432;-63
2023/01/22 12:29:24;;;;;;;5.55;2.92;;;;;;;;;;4397804;32;70505;-64
2023/01/22 12:32:14;;;;;;;3.90;2.70;;;;;;;;;;4386599;32;66686;-62
2023/01/22 12:35:07;;;;;;;5.80;3.00;;;;;;;;;;4375715;32;68030;-63
2023/01/22 12:37:56;;;;;;;7.65;4.10;;;;;;;;;;4397773;32;59797;-63
2023/01/22 12:41:10;;;;;;;6.40;3.37;;;;;;;;;;4398816;32;70467;-63
2023/01/22 12:43:58;;;;;;;4.70;3.12;;;;;;;;;;4386445;32;69432;-63
2023/01/22 12:47:07;;;;;;;6.35;3.00;;;;;;;;;;4397364;32;67643;-63
2023/01/22 12:49:53;;;;;;;5.60;3.17;;;;;;;;;;4397277;32;71748;-63
2023/01/22 12:52:41;;;;;;;5.00;2.83;;;;;;;;;;4397642;32;65665;-63
2023/01/22 12:55:33;;;;;;;5.05;3.00;;;;;;;;;;4375655;32;68358;-62
2023/01/22 12:58:25;;;;;;;4.50;2.62;;;;;;;;;;4397514;32;59964;-63
2023/01/22 13:01:11;;;;;;;5.95;2.62;;;;;;;;;;4386613;32;71608;-63
2023/01/22 13:04:03;;;;;;;5.82;3.03;;;;;;;;;;4386211;32;67330;-63
2023/01/22 13:06:50;;;;;;;6.72;2.90;;;;;;;;;;4386824;32;66980;-63
2023/01/22 13:09:37;;;;;;;;;;;;;;;;;;4397951;32;60022;-63
2023/01/22 13:12:35;;;;;;;4.82;3.20;;;;;;;;;;4397319;32;69615;-62
2023/01/22 13:15:36;;;;;;;8.52;3.28;;;;;;;;;;4397207;32;68409;-63
2023/01/22 13:18:30;;;;;;;4.37;3.00;;;;;;;;;;4377844;32;67388;-64
2023/01/22 13:21:22;;;;;;;5.18;3.00;;;;;;;;;;4386567;32;71650;-63
2023/01/22 13:24:15;;;;;;;5.35;3.00;;;;;;;;;;4376510;32;66332;-63
2023/01/22 13:27:03;;;;;;;4.82;2.90;;;;;;;;;;4364587;32;69859;-63
2023/01/22 13:29:49;;;;;;;5.90;3.10;;;;;;;;;;4396855;32;67927;-64
2023/01/22 13:32:36;;;;;;;4.93;3.37;;;;;;;;;;4397125;32;70680;-63
2023/01/22 13:35:23;;;;;;;5.28;3.40;;;;;;;;;;4397349;32;65853;-62
2023/01/22 13:38:36;;;;;;;5.18;2.70;;;;;;;;;;4386152;32;68112;-63
2023/01/22 13:41:27;;;;;;;4.25;2.92;;;;;;;;;;4396961;32;59292;-63
2023/01/22 13:44:19;;;;;;;5.40;3.53;;;;;;;;;;4385625;32;70117;-64
2023/01/22 13:47:05;;;;;;;5.03;3.30;;;;;;;;;;4385994;32;69282;-63
2023/01/22 13:49:52;;;;;;;6.12;3.40;;;;;;;;;;4396788;32;67632;-62
2023/01/22 13:52:39;;;;;;;5.47;3.83;;;;;;;;;;4374855;32;60380;-63
2023/01/22 13:55:26;;;;;;;6.40;3.65;;;;;;;;;;4397910;32;70501;-62
2023/01/22 13:58:31;;;;;;;5.68;3.65;;;;;;;;;;4385585;32;68939;-62
2023/01/22 14:04:25;;;;;;;4.68;3.30;;;;;;;;;;3847536;37;43126;-63
2023/01/22 14:07:26;;;;;;;5.75;3.35;;;;;;;;;;4410081;32;59199;-62
2023/01/22 14:10:20;;;;;;;4.97;3.12;;;;;;;;;;4388510;32;69486;-64
2023/01/22 14:13:12;;;;;;;5.12;3.28;;;;;;;;;;4388528;32;69119;-62
2023/01/22 14:16:05;;;;;;;7.05;4.18;;;;;;;;;;4398326;32;68178;-64
2023/01/22 14:18:52;;;;;;;7.60;4.37;;;;;;;;;;4409902;32;71034;-63
2023/01/22 14:21:39;;;;;;;8.00;4.65;;;;;;;;;;4411420;32;65045;-64
2023/01/22 14:24:26;;;;;;;7.95;4.47;;;;;;;;;;4398672;32;68230;-62
2023/01/22 14:27:13;;;;;;;6.60;3.80;;;;;;;;;;4410052;32;60156;-63
2023/01/22 14:30:00;;;;;;;7.20;3.33;;;;;;;;;;4409456;32;70723;-62
2023/01/22 14:32:46;;;;;;;5.72;3.35;;;;;;;;;;4387493;32;65645;-63
2023/01/22 14:35:33;;;;;;;5.57;3.00;;;;;;;;;;4409029;32;68197;-63
2023/01/22 14:38:20;;;;;;;7.00;3.35;;;;;;;;;;4409645;32;60382;-62
2023/01/22 14:41:07;;;;;;;5.82;3.10;;;;;;;;;;4398543;32;69471;-62
2023/01/22 14:43:53;;;;;;;;;;;;;;;;;;4409780;32;69468;-63
2023/01/22 14:46:41;;;;;;;5.35;3.20;;;;;;;;;;4388660;32;67059;-64
2023/01/22 14:49:27;;;;;;;5.20;2.70;;;;;;;;;;4397635;32;72426;-62
2023/01/22 14:52:14;;;;;;;4.70;3.25;;;;;;;;;;4388005;32;66876;-63
2023/01/22 14:55:01;;;;;;;5.03;2.70;;;;;;;;;;4409379;32;69392;-63
2023/01/22 14:57:48;;;;;;;4.47;2.80;;;;;;;;;;4409307;32;67819;-63
2023/01/22 15:00:34;;;;;;;;;;;;;;;;;;4399350;32;71661;-63
2023/01/22 15:03:21;;;;;;;6.07;2.72;;;;;;;;;;4398319;32;66058;-64
2023/01/22 15:06:08;;;;;;;5.12;3.12;;;;;;;;;;4409289;32;67750;-63
2023/01/22 15:08:55;;;;;;;4.50;2.80;;;;;;;;;;4387506;32;60820;-63
2023/01/22 15:11:41;;;;;;;4.05;2.90;;;;;;;;;;4402924;32;71422;-62
2023/01/22 15:14:28;;;;;;;4.53;2.70;;;;;;;;;;4404454;32;68296;-63
2023/01/22 15:17:14;;;;;;;4.40;2.72;;;;;;;;;;4387425;32;68432;-63
2023/01/22 15:20:01;;;;;;;4.65;2.60;;;;;;;;;;4398545;32;59133;-63
2023/01/22 15:22:50;;;;;;;6.57;2.80;;;;;;;;;;4377224;32;69233;-62
2023/01/22 15:25:37;;;;;;;4.90;2.95;;;;;;;;;;4366262;32;69820;-64
2023/01/22 15:28:24;;;;;;;5.70;2.87;;;;;;;;;;4376586;32;68648;-64
2023/01/22 15:31:10;;;;;;;6.10;3.03;;;;;;;;;;4398659;32;71568;-64
2023/01/22 15:34:00;;;;;;;4.53;2.62;;;;;;;;;;4388586;32;65960;-63
2023/01/22 15:36:48;;;;;;;4.68;2.92;;;;;;;;;;4388395;32;66954;-62
2023/01/22 15:39:34;;;;;;;5.95;2.87;;;;;;;;;;4398949;32;59299;-63
2023/01/22 15:42:21;;;;;;;5.80;2.60;;;;;;;;;;4387701;32;70006;-62
2023/01/22 15:45:09;;;;;;;6.45;2.87;;;;;;;;;;4376383;32;66697;-62
2023/01/22 15:47:56;;;;;;;3.30;2.40;;;;;;;;;;4387851;32;66572;-63
2023/01/22 15:50:42;;;;;;;4.28;2.72;;;;;;;;;;4398400;32;59202;-63
2023/01/22 15:53:29;;;;;;;4.87;3.00;;;;;;;;;;4397778;32;71395;-62
2023/01/22 15:56:15;;;;;;;4.85;2.83;;;;;;;;;;4398353;32;69588;-63
2023/01/22 15:59:03;;;;;;;5.12;2.80;;;;;;;;;;4399551;32;66697;-63
2023/01/22 16:01:49;;;;;;;7.32;3.20;;;;;;;;;;4386975;32;72108;-62
2023/01/22 16:04:36;;;;;;;5.15;2.90;;;;;;;;;;4399972;32;65703;-63
2023/01/22 16:07:22;;;;;;;4.55;3.12;;;;;;;;;;4398605;32;67866;-62
2023/01/22 16:10:09;;;;;;;4.97;2.40;;;;;;;;;;4398474;32;67640;-62
2023/01/22 16:12:56;;;;;;;4.90;2.65;;;;;;;;;;4376710;32;71788;-63
2023/01/22 16:15:42;;;;;;;5.18;2.58;;;;;;;;;;4386685;32;67023;-64
2023/01/22 16:18:32;;;;;;;7.95;2.83;;;;;;;;;;4386629;32;66953;-63
2023/01/22 16:21:20;;;;;;;4.53;2.90;;;;;;;;;;4398263;32;59112;-64
2023/01/22 16:24:07;;;;;;;4.93;2.65;;;;;;;;;;4386673;32;70822;-63
2023/01/22 16:26:54;;;;;;;4.07;2.80;;;;;;;;;;4386451;32;68282;-62
2023/01/22 16:29:40;;;;;;;4.72;2.90;;;;;;;;;;4387121;32;68517;-63
2023/01/22 16:32:27;;;;;;;6.12;3.15;;;;;;;;;;4399020;32;59886;-63
2023/01/22 16:35:13;;;;;;;4.90;3.35;;;;;;;;;;4399193;32;69974;-62
2023/01/22 16:38:00;;;;;;;5.55;3.22;;;;;;;;;;4399255;32;69414;-64
2023/01/22 16:40:46;;;;;;;6.62;2.80;;;;;;;;;;4386696;32;68054;-64
2023/01/22 16:43:33;;;;;;;3.65;2.37;;;;;;;;;;4386787;32;70781;-64
2023/01/22 16:46:22;;;;;;;4.70;3.12;;;;;;;;;;4398105;32;66199;-63
2023/01/22 16:49:29;;;;;;;5.60;2.67;;;;;;;;;;4399070;32;66676;-61
2023/01/22 16:52:16;;;;;;;5.82;3.25;;;;;;;;;;4397687;32;59482;-64
2023/01/22 16:55:05;;;;;;;6.57;3.22;;;;;;;;;;4398781;32;70693;-64
2023/01/22 16:57:52;;;;;;;5.62;3.03;;;;;;;;;;4397119;32;67029;-63
2023/01/22 17:00:38;;;;;;;6.85;2.78;;;;;;;;;;4386789;32;68110;-62
2023/01/22 17:03:25;;;;;;;5.50;3.03;;;;;;;;;;4398519;32;60514;-63
2023/01/22 17:06:25;;;;;;;5.05;3.17;;;;;;;;;;4396535;32;71314;-64
2023/01/22 17:09:17;;;;;;;6.25;3.62;;;;;;;;;;4386308;32;68902;-63
2023/01/22 17:12:05;;;;;;;5.68;3.20;;;;;;;;;;4398637;32;67836;-63
2023/01/22 17:14:52;;;;;;;5.68;3.25;;;;;;;;;;4364317;32;72640;-63